METAR Formatted Surface Weather Observation
Issued by NWS

Home | Current Version | Previous Version | Text Only | Print | Product List | Glossary On
Versions: 1
000
SAUS41 KPHI 281804
MTRNEL
METAR KNEL 281800Z AUTO 26004KT 10SM CLR 27/14 A3010 RMK AO2 SLP190
T02720144 10278 20133 58016 $



USA.gov is the U.S. government's official web portal to all federal, state and local government web resources and services.